sensor_id;sensor_type;location;lat;lon;timestamp;pressure;altitude;pressure_sealevel;temperature;humidity
20023;BME280;10172;42.054;24.546;2023-08-01T00:01:01;97691.44;;;22.19;100.00
20023;BME280;10172;42.054;24.546;2023-08-01T00:03:27;97686.63;;;22.35;100.00
20023;BME280;10172;42.054;24.546;2023-08-01T00:05:53;97689.09;;;22.30;100.00
20023;BME280;10172;42.054;24.546;2023-08-01T00:08:20;97689.88;;;22.45;100.00
20023;BME280;10172;42.054;24.546;2023-08-01T00:10:45;97686.78;;;22.13;100.00
20023;BME280;10172;42.054;24.546;2023-08-01T00:13:11;97684.50;;;21.95;100.00
20023;BME280;10172;42.054;24.546;2023-08-01T00:15:37;97686.16;;;21.96;100.00
20023;BME280;10172;42.054;24.546;2023-08-01T00:18:02;97678.16;;;21.73;100.00
20023;BME280;10172;42.054;24.546;2023-08-01T00:20:28;97671.41;;;21.69;100.00
20023;BME280;10172;42.054;24.546;2023-08-01T00:22:53;97681.50;;;21.31;100.00
20023;BME280;10172;42.054;24.546;2023-08-01T00:25:19;97671.69;;;21.30;100.00
20023;BME280;10172;42.054;24.546;2023-08-01T00:27:45;97662.22;;;21.49;100.00
20023;BME280;10172;42.054;24.546;2023-08-01T00:30:10;97652.03;;;21.36;100.00
20023;BME280;10172;42.054;24.546;2023-08-01T00:32:37;97667.31;;;21.59;100.00
20023;BME280;10172;42.054;24.546;2023-08-01T00:35:03;97654.59;;;21.74;100.00
20023;BME280;10172;42.054;24.546;2023-08-01T00:37:28;97647.16;;;21.76;100.00
20023;BME280;10172;42.054;24.546;2023-08-01T00:39:54;97651.78;;;22.11;100.00
20023;BME280;10172;42.054;24.546;2023-08-01T00:42:19;97654.44;;;22.26;100.00
20023;BME280;10172;42.054;24.546;2023-08-01T00:44:45;97654.59;;;21.74;100.00
20023;BME280;10172;42.054;24.546;2023-08-01T00:47:13;97647.91;;;21.70;100.00
20023;BME280;10172;42.054;24.546;2023-08-01T00:49:38;97657.44;;;21.95;100.00
20023;BME280;10172;42.054;24.546;2023-08-01T00:52:04;97650.31;;;21.94;100.00
20023;BME280;10172;42.054;24.546;2023-08-01T00:54:30;97643.22;;;21.93;100.00
20023;BME280;10172;42.054;24.546;2023-08-01T00:57:02;97629.75;;;21.85;100.00
20023;BME280;10172;42.054;24.546;2023-08-01T00:59:28;97640.25;;;21.88;100.00
20023;BME280;10172;42.054;24.546;2023-08-01T01:01:53;97622.63;;;22.13;100.00
20023;BME280;10172;42.054;24.546;2023-08-01T01:04:19;97617.88;;;21.65;100.00
20023;BME280;10172;42.054;24.546;2023-08-01T01:06:47;97624.53;;;21.98;100.00
20023;BME280;10172;42.054;24.546;2023-08-01T01:09:19;97618.34;;;22.04;100.00
20023;BME280;10172;42.054;24.546;2023-08-01T01:11:44;97611.72;;;22.07;100.00
20023;BME280;10172;42.054;24.546;2023-08-01T01:14:10;97618.00;;;21.92;100.00
20023;BME280;10172;42.054;24.546;2023-08-01T01:16:36;97607.00;;;21.94;100.00
20023;BME280;10172;42.054;24.546;2023-08-01T01:19:06;97605.03;;;21.88;100.00
20023;BME280;10172;42.054;24.546;2023-08-01T01:21:34;97594.13;;;21.81;100.00
20023;BME280;10172;42.054;24.546;2023-08-01T01:24:00;97596.69;;;22.04;100.00
20023;BME280;10172;42.054;24.546;2023-08-01T01:26:28;97598.28;;;21.63;100.00
20023;BME280;10172;42.054;24.546;2023-08-01T01:28:53;97597.16;;;21.28;100.00
20023;BME280;10172;42.054;24.546;2023-08-01T01:31:20;97588.03;;;21.43;100.00
20023;BME280;10172;42.054;24.546;2023-08-01T01:33:45;97598.19;;;21.41;100.00
20023;BME280;10172;42.054;24.546;2023-08-01T01:36:11;97588.94;;;21.51;100.00
20023;BME280;10172;42.054;24.546;2023-08-01T01:38:37;97580.19;;;21.49;100.00
20023;BME280;10172;42.054;24.546;2023-08-01T01:41:02;97578.91;;;21.80;100.00
20023;BME280;10172;42.054;24.546;2023-08-01T01:43:27;97577.59;;;21.91;100.00
20023;BME280;10172;42.054;24.546;2023-08-01T01:45:53;97580.00;;;21.86;100.00
20023;BME280;10172;42.054;24.546;2023-08-01T01:48:18;97576.31;;;21.72;100.00
20023;BME280;10172;42.054;24.546;2023-08-01T01:50:44;97583.69;;;21.64;100.00
20023;BME280;10172;42.054;24.546;2023-08-01T01:53:09;97574.41;;;21.22;100.00
20023;BME280;10172;42.054;24.546;2023-08-01T01:55:35;97581.88;;;21.20;100.00
20023;BME280;10172;42.054;24.546;2023-08-01T01:58:00;97572.81;;;21.28;100.00
20023;BME280;10172;42.054;24.546;2023-08-01T02:00:26;97574.22;;;21.09;100.00
20023;BME280;10172;42.054;24.546;2023-08-01T02:02:51;97576.28;;;21.07;100.00
20023;BME280;10172;42.054;24.546;2023-08-01T02:05:17;97581.97;;;20.98;100.00
20023;BME280;10172;42.054;24.546;2023-08-01T02:07:42;97580.41;;;21.18;100.00
20023;BME280;10172;42.054;24.546;2023-08-01T02:10:08;97579.97;;;21.06;100.00
20023;BME280;10172;42.054;24.546;2023-08-01T02:12:33;97585.81;;;21.32;100.00
20023;BME280;10172;42.054;24.546;2023-08-01T02:15:01;97602.31;;;21.37;100.00
20023;BME280;10172;42.054;24.546;2023-08-01T02:17:26;97599.13;;;21.84;100.00
20023;BME280;10172;42.054;24.546;2023-08-01T02:19:51;97595.06;;;21.74;100.00
20023;BME280;10172;42.054;24.546;2023-08-01T02:22:17;97597.59;;;21.61;100.00
20023;BME280;10172;42.054;24.546;2023-08-01T02:24:43;97604.00;;;21.24;100.00
20023;BME280;10172;42.054;24.546;2023-08-01T02:27:08;97609.09;;;20.90;100.00
20023;BME280;10172;42.054;24.546;2023-08-01T02:29:34;97605.34;;;21.05;100.00
20023;BME280;10172;42.054;24.546;2023-08-01T02:31:59;97609.56;;;20.56;100.00
20023;BME280;10172;42.054;24.546;2023-08-01T02:34:25;97610.25;;;20.87;100.00
20023;BME280;10172;42.054;24.546;2023-08-01T02:36:50;97605.31;;;20.76;100.00
20023;BME280;10172;42.054;24.546;2023-08-01T02:39:15;97606.31;;;21.12;100.00
20023;BME280;10172;42.054;24.546;2023-08-01T02:41:41;97607.03;;;21.06;100.00
20023;BME280;10172;42.054;24.546;2023-08-01T02:44:06;97609.00;;;20.98;100.00
20023;BME280;10172;42.054;24.546;2023-08-01T02:46:32;97610.06;;;21.11;100.00
20023;BME280;10172;42.054;24.546;2023-08-01T02:48:57;97613.03;;;21.16;100.00
20023;BME280;10172;42.054;24.546;2023-08-01T02:51:23;97612.50;;;20.98;100.00
20023;BME280;10172;42.054;24.546;2023-08-01T02:53:48;97617.34;;;20.73;100.00
20023;BME280;10172;42.054;24.546;2023-08-01T02:56:14;97603.78;;;20.59;100.00
20023;BME280;10172;42.054;24.546;2023-08-01T02:58:39;97624.31;;;20.68;100.00
20023;BME280;10172;42.054;24.546;2023-08-01T03:01:08;97632.28;;;20.84;100.00
20023;BME280;10172;42.054;24.546;2023-08-01T03:03:37;97623.63;;;20.51;100.00
20023;BME280;10172;42.054;24.546;2023-08-01T03:06:03;97631.97;;;20.79;100.00
20023;BME280;10172;42.054;24.546;2023-08-01T03:08:28;97627.00;;;21.20;100.00
20023;BME280;10172;42.054;24.546;2023-08-01T03:10:54;97616.59;;;20.79;100.00
20023;BME280;10172;42.054;24.546;2023-08-01T03:13:19;97630.31;;;20.78;100.00
20023;BME280;10172;42.054;24.546;2023-08-01T03:15:45;97620.94;;;20.66;100.00
20023;BME280;10172;42.054;24.546;2023-08-01T03:18:10;97621.84;;;20.96;100.00
20023;BME280;10172;42.054;24.546;2023-08-01T03:20:36;97623.78;;;20.87;100.00
20023;BME280;10172;42.054;24.546;2023-08-01T03:23:02;97631.28;;;21.00;100.00
20023;BME280;10172;42.054;24.546;2023-08-01T03:25:28;97637.13;;;20.88;100.00
20023;BME280;10172;42.054;24.546;2023-08-01T03:27:53;97633.69;;;21.82;100.00
20023;BME280;10172;42.054;24.546;2023-08-01T03:30:20;97633.16;;;21.58;100.00
20023;BME280;10172;42.054;24.546;2023-08-01T03:32:46;97639.53;;;20.98;100.00
20023;BME280;10172;42.054;24.546;2023-08-01T03:35:12;97630.47;;;21.43;100.00
20023;BME280;10172;42.054;24.546;2023-08-01T03:37:39;97634.81;;;21.88;100.00
20023;BME280;10172;42.054;24.546;2023-08-01T03:40:06;97636.44;;;21.68;100.00
20023;BME280;10172;42.054;24.546;2023-08-01T03:42:34;97635.66;;;22.03;100.00
20023;BME280;10172;42.054;24.546;2023-08-01T03:45:00;97646.88;;;21.56;100.00
20023;BME280;10172;42.054;24.546;2023-08-01T03:47:25;97644.75;;;21.52;100.00
20023;BME280;10172;42.054;24.546;2023-08-01T03:49:51;97640.38;;;21.65;100.00
20023;BME280;10172;42.054;24.546;2023-08-01T03:52:16;97631.03;;;21.68;100.00
20023;BME280;10172;42.054;24.546;2023-08-01T03:54:42;97630.75;;;21.33;100.00
20023;BME280;10172;42.054;24.546;2023-08-01T03:57:07;97649.06;;;21.46;100.00
20023;BME280;10172;42.054;24.546;2023-08-01T03:59:33;97637.91;;;21.12;100.00
20023;BME280;10172;42.054;24.546;2023-08-01T04:01:58;97639.06;;;21.32;100.00
20023;BME280;10172;42.054;24.546;2023-08-01T04:04:24;97640.44;;;21.72;100.00
20023;BME280;10172;42.054;24.546;2023-08-01T04:06:49;97647.25;;;21.97;100.00
20023;BME280;10172;42.054;24.546;2023-08-01T04:09:15;97642.56;;;21.91;100.00
20023;BME280;10172;42.054;24.546;2023-08-01T04:11:40;97635.22;;;21.70;100.00
20023;BME280;10172;42.054;24.546;2023-08-01T04:14:05;97646.28;;;22.04;100.00
20023;BME280;10172;42.054;24.546;2023-08-01T04:16:31;97650.09;;;22.52;100.00
20023;BME280;10172;42.054;24.546;2023-08-01T04:18:56;97650.50;;;22.28;100.00
20023;BME280;10172;42.054;24.546;2023-08-01T04:21:22;97648.94;;;22.19;100.00
20023;BME280;10172;42.054;24.546;2023-08-01T04:23:47;97653.19;;;22.28;100.00
20023;BME280;10172;42.054;24.546;2023-08-01T04:26:13;97649.31;;;21.95;100.00
20023;BME280;10172;42.054;24.546;2023-08-01T04:28:38;97653.03;;;22.30;100.00
20023;BME280;10172;42.054;24.546;2023-08-01T04:31:04;97661.66;;;22.40;100.00
20023;BME280;10172;42.054;24.546;2023-08-01T04:33:30;97646.56;;;23.22;100.00
20023;BME280;10172;42.054;24.546;2023-08-01T04:35:55;97652.78;;;23.16;100.00
20023;BME280;10172;42.054;24.546;2023-08-01T04:38:21;97645.72;;;23.21;100.00
20023;BME280;10172;42.054;24.546;2023-08-01T04:40:46;97650.09;;;23.91;100.00
20023;BME280;10172;42.054;24.546;2023-08-01T04:43:13;97652.38;;;23.88;100.00
20023;BME280;10172;42.054;24.546;2023-08-01T04:45:39;97651.44;;;24.08;100.00
20023;BME280;10172;42.054;24.546;2023-08-01T04:48:04;97650.75;;;24.00;100.00
20023;BME280;10172;42.054;24.546;2023-08-01T04:50:30;97655.25;;;23.73;100.00
20023;BME280;10172;42.054;24.546;2023-08-01T04:52:55;97661.78;;;24.32;100.00
20023;BME280;10172;42.054;24.546;2023-08-01T04:55:21;97660.19;;;24.90;96.89
20023;BME280;10172;42.054;24.546;2023-08-01T04:57:46;97664.78;;;25.23;95.48
20023;BME280;10172;42.054;24.546;2023-08-01T05:00:12;97661.88;;;25.11;100.00
20023;BME280;10172;42.054;24.546;2023-08-01T05:02:38;97658.47;;;25.55;98.02
20023;BME280;10172;42.054;24.546;2023-08-01T05:05:04;97654.09;;;25.41;98.48
20023;BME280;10172;42.054;24.546;2023-08-01T05:07:30;97663.91;;;24.76;100.00
20023;BME280;10172;42.054;24.546;2023-08-01T05:09:55;97663.66;;;24.45;100.00
20023;BME280;10172;42.054;24.546;2023-08-01T05:12:21;97663.91;;;24.76;100.00
20023;BME280;10172;42.054;24.546;2023-08-01T05:14:47;97656.44;;;24.85;99.73
20023;BME280;10172;42.054;24.546;2023-08-01T05:17:12;97663.13;;;24.95;96.84
20023;BME280;10172;42.054;24.546;2023-08-01T05:19:38;97664.59;;;24.98;90.85
20023;BME280;10172;42.054;24.546;2023-08-01T05:22:04;97671.47;;;25.53;90.08
20023;BME280;10172;42.054;24.546;2023-08-01T05:24:29;97673.75;;;25.76;95.00
20023;BME280;10172;42.054;24.546;2023-08-01T05:26:55;97675.50;;;26.14;90.15
20023;BME280;10172;42.054;24.546;2023-08-01T05:29:20;97673.97;;;26.32;88.13
20023;BME280;10172;42.054;24.546;2023-08-01T05:31:46;97671.59;;;26.42;85.43
20023;BME280;10172;42.054;24.546;2023-08-01T05:34:11;97673.16;;;26.25;85.62
20023;BME280;10172;42.054;24.546;2023-08-01T05:36:37;97668.44;;;25.87;82.47
20023;BME280;10172;42.054;24.546;2023-08-01T05:39:02;97678.19;;;25.31;85.12
20023;BME280;10172;42.054;24.546;2023-08-01T05:41:28;97668.09;;;25.64;82.39
20023;BME280;10172;42.054;24.546;2023-08-01T05:43:54;97674.56;;;26.34;81.06
20023;BME280;10172;42.054;24.546;2023-08-01T05:46:20;97671.28;;;25.28;83.97
20023;BME280;10172;42.054;24.546;2023-08-01T05:48:46;97678.97;;;25.77;83.38
20023;BME280;10172;42.054;24.546;2023-08-01T05:51:11;97670.28;;;26.51;80.99
20023;BME280;10172;42.054;24.546;2023-08-01T05:53:37;97670.84;;;26.97;77.75
20023;BME280;10172;42.054;24.546;2023-08-01T05:56:02;97682.63;;;26.91;78.30
20023;BME280;10172;42.054;24.546;2023-08-01T05:58:30;97683.06;;;26.88;74.84
20023;BME280;10172;42.054;24.546;2023-08-01T06:00:55;97671.59;;;26.42;77.93
20023;BME280;10172;42.054;24.546;2023-08-01T06:03:21;97680.25;;;27.26;75.20
20023;BME280;10172;42.054;24.546;2023-08-01T06:05:46;97675.50;;;27.40;73.34
20023;BME280;10172;42.054;24.546;2023-08-01T06:08:12;97675.41;;;27.53;73.97
20023;BME280;10172;42.054;24.546;2023-08-01T06:10:38;97668.59;;;27.62;72.54
20023;BME280;10172;42.054;24.546;2023-08-01T06:13:04;97672.94;;;27.45;72.90
20023;BME280;10172;42.054;24.546;2023-08-01T06:15:29;97660.03;;;27.95;70.31
20023;BME280;10172;42.054;24.546;2023-08-01T06:17:55;97671.63;;;28.26;68.74
20023;BME280;10172;42.054;24.546;2023-08-01T06:20:20;97658.66;;;28.52;66.23
20023;BME280;10172;42.054;24.546;2023-08-01T06:22:46;97663.31;;;28.81;65.60
20023;BME280;10172;42.054;24.546;2023-08-01T06:25:11;97651.00;;;28.42;64.49
20023;BME280;10172;42.054;24.546;2023-08-01T06:27:37;97657.59;;;28.05;67.81
20023;BME280;10172;42.054;24.546;2023-08-01T06:30:03;97656.75;;;28.04;68.12
20023;BME280;10172;42.054;24.546;2023-08-01T06:32:29;97657.59;;;28.05;68.63
20023;BME280;10172;42.054;24.546;2023-08-01T06:34:54;97646.66;;;28.05;69.23
20023;BME280;10172;42.054;24.546;2023-08-01T06:37:20;97661.59;;;28.20;68.22
20023;BME280;10172;42.054;24.546;2023-08-01T06:39:45;97650.50;;;28.33;66.84
20023;BME280;10172;42.054;24.546;2023-08-01T06:42:11;97651.31;;;28.34;67.35
20023;BME280;10172;42.054;24.546;2023-08-01T06:44:36;97643.03;;;29.12;66.02
20023;BME280;10172;42.054;24.546;2023-08-01T06:47:02;97640.41;;;28.64;64.14
20023;BME280;10172;42.054;24.546;2023-08-01T06:49:27;97637.13;;;28.85;64.62
20023;BME280;10172;42.054;24.546;2023-08-01T06:51:53;97639.78;;;29.03;63.45
20023;BME280;10172;42.054;24.546;2023-08-01T06:54:18;97638.22;;;28.24;66.14
20023;BME280;10172;42.054;24.546;2023-08-01T06:56:44;97635.31;;;28.01;69.16
20023;BME280;10172;42.054;24.546;2023-08-01T06:59:13;97631.94;;;28.95;64.64
20023;BME280;10172;42.054;24.546;2023-08-01T07:01:41;97639.13;;;29.66;63.35
20023;BME280;10172;42.054;24.546;2023-08-01T07:04:13;97632.19;;;29.75;60.82
20023;BME280;10172;42.054;24.546;2023-08-01T07:06:39;97623.03;;;29.57;61.10
20023;BME280;10172;42.054;24.546;2023-08-01T07:09:04;97637.19;;;29.66;61.42
20023;BME280;10172;42.054;24.546;2023-08-01T07:11:32;97639.47;;;29.23;61.86
20023;BME280;10172;42.054;24.546;2023-08-01T07:13:58;97630.81;;;30.12;61.39
20023;BME280;10172;42.054;24.546;2023-08-01T07:16:23;97625.66;;;30.15;59.04
20023;BME280;10172;42.054;24.546;2023-08-01T07:18:49;97641.97;;;30.62;57.42
20023;BME280;10172;42.054;24.546;2023-08-01T07:21:15;97644.06;;;31.00;56.63
20023;BME280;10172;42.054;24.546;2023-08-01T07:23:41;97637.56;;;31.22;55.30
20023;BME280;10172;42.054;24.546;2023-08-01T07:26:07;97640.81;;;31.36;52.12
20023;BME280;10172;42.054;24.546;2023-08-01T07:28:32;97636.91;;;30.14;58.86
20023;BME280;10172;42.054;24.546;2023-08-01T07:31:02;97633.00;;;29.98;60.57
20023;BME280;10172;42.054;24.546;2023-08-01T07:33:28;97634.34;;;30.24;58.29
20023;BME280;10172;42.054;24.546;2023-08-01T07:35:54;97638.50;;;30.38;57.67
20023;BME280;10172;42.054;24.546;2023-08-01T07:38:19;97628.56;;;30.49;57.83
20023;BME280;10172;42.054;24.546;2023-08-01T07:40:45;97629.44;;;30.26;57.07
20023;BME280;10172;42.054;24.546;2023-08-01T07:43:10;97628.38;;;30.84;55.56
20023;BME280;10172;42.054;24.546;2023-08-01T07:45:36;97628.78;;;30.47;57.74
20023;BME280;10172;42.054;24.546;2023-08-01T07:48:02;97629.94;;;30.79;56.28
20023;BME280;10172;42.054;24.546;2023-08-01T07:50:28;97624.00;;;30.99;55.74
20023;BME280;10172;42.054;24.546;2023-08-01T07:52:53;97624.91;;;31.21;53.96
20023;BME280;10172;42.054;24.546;2023-08-01T07:55:19;97627.13;;;31.58;51.42
20023;BME280;10172;42.054;24.546;2023-08-01T07:57:46;97630.00;;;31.46;51.11
20023;BME280;10172;42.054;24.546;2023-08-01T08:00:12;97621.41;;;31.26;51.57
20023;BME280;10172;42.054;24.546;2023-08-01T08:02:37;97614.50;;;31.57;51.33
20023;BME280;10172;42.054;24.546;2023-08-01T08:05:03;97624.78;;;30.38;53.02
20023;BME280;10172;42.054;24.546;2023-08-01T08:07:29;97606.66;;;30.65;53.54
20023;BME280;10172;42.054;24.546;2023-08-01T08:09:54;97613.66;;;31.23;50.38
20023;BME280;10172;42.054;24.546;2023-08-01T08:12:23;97605.34;;;30.85;51.26
20023;BME280;10172;42.054;24.546;2023-08-01T08:14:49;97596.72;;;31.64;50.11
20023;BME280;10172;42.054;24.546;2023-08-01T08:17:14;97602.44;;;32.23;48.13
20023;BME280;10172;42.054;24.546;2023-08-01T08:19:40;97597.00;;;32.28;48.14
20023;BME280;10172;42.054;24.546;2023-08-01T08:22:06;97597.56;;;32.30;46.95
20023;BME280;10172;42.054;24.546;2023-08-01T08:24:32;97597.75;;;32.23;46.88
20023;BME280;10172;42.054;24.546;2023-08-01T08:26:57;97596.63;;;32.68;45.88
20023;BME280;10172;42.054;24.546;2023-08-01T08:29:23;97587.53;;;32.99;45.06
20023;BME280;10172;42.054;24.546;2023-08-01T08:31:48;97593.88;;;32.99;44.86
20023;BME280;10172;42.054;24.546;2023-08-01T08:34:14;97572.56;;;32.58;45.19
20023;BME280;10172;42.054;24.546;2023-08-01T08:36:39;97579.28;;;32.19;47.94
20023;BME280;10172;42.054;24.546;2023-08-01T08:39:05;97576.69;;;31.90;47.46
20023;BME280;10172;42.054;24.546;2023-08-01T08:41:38;97579.53;;;31.19;49.92
20023;BME280;10172;42.054;24.546;2023-08-01T08:44:07;97583.72;;;31.05;49.70
20023;BME280;10172;42.054;24.546;2023-08-01T08:46:40;97570.84;;;31.60;48.34
20023;BME280;10172;42.054;24.546;2023-08-01T08:49:06;97568.06;;;32.25;47.88
20023;BME280;10172;42.054;24.546;2023-08-01T08:51:32;97569.41;;;31.79;47.57
20023;BME280;10172;42.054;24.546;2023-08-01T08:53:58;97568.00;;;30.55;51.51
20023;BME280;10172;42.054;24.546;2023-08-01T08:56:24;97566.03;;;31.51;49.07
20023;BME280;10172;42.054;24.546;2023-08-01T08:58:50;97557.78;;;31.72;49.21
20023;BME280;10172;42.054;24.546;2023-08-01T09:01:17;97560.59;;;32.47;45.75
20023;BME280;10172;42.054;24.546;2023-08-01T09:03:44;97555.09;;;32.47;45.95
20023;BME280;10172;42.054;24.546;2023-08-01T09:06:30;97548.00;;;32.83;45.21
20023;BME280;10172;42.054;24.546;2023-08-01T09:09:10;97545.69;;;32.70;44.56
20023;BME280;10172;42.054;24.546;2023-08-01T09:14:11;97541.66;;;32.83;44.72
20023;BME280;10172;42.054;24.546;2023-08-01T09:16:39;97540.91;;;32.87;44.71
20023;BME280;10172;42.054;24.546;2023-08-01T09:19:05;97536.41;;;32.76;44.23
20023;BME280;10172;42.054;24.546;2023-08-01T09:21:32;97533.97;;;32.85;44.19
20023;BME280;10172;42.054;24.546;2023-08-01T09:24:08;97527.47;;;32.64;44.18
20023;BME280;10172;42.054;24.546;2023-08-01T09:26:33;97523.31;;;32.98;43.74
20023;BME280;10172;42.054;24.546;2023-08-01T09:28:59;97528.59;;;33.42;43.15
20023;BME280;10172;42.054;24.546;2023-08-01T09:31:33;97521.69;;;32.12;44.85
20023;BME280;10172;42.054;24.546;2023-08-01T09:34:03;97516.97;;;32.61;44.88
20023;BME280;10172;42.054;24.546;2023-08-01T09:36:31;97509.38;;;32.73;43.40
20023;BME280;10172;42.054;24.546;2023-08-01T09:39:03;97517.63;;;33.05;43.93
20023;BME280;10172;42.054;24.546;2023-08-01T09:41:30;97509.00;;;33.33;43.68
20023;BME280;10172;42.054;24.546;2023-08-01T09:43:56;97512.81;;;32.59;44.58
20023;BME280;10172;42.054;24.546;2023-08-01T09:46:22;97517.38;;;32.75;44.53
20023;BME280;10172;42.054;24.546;2023-08-01T09:48:48;97512.81;;;33.79;42.77
20023;BME280;10172;42.054;24.546;2023-08-01T09:51:15;97506.25;;;33.90;41.75
20023;BME280;10172;42.054;24.546;2023-08-01T09:53:49;97501.72;;;33.64;43.24
20023;BME280;10172;42.054;24.546;2023-08-01T09:56:18;97497.31;;;33.63;43.32
20023;BME280;10172;42.054;24.546;2023-08-01T09:58:46;97499.56;;;33.71;43.33
20023;BME280;10172;42.054;24.546;2023-08-01T10:01:13;97503.13;;;33.72;42.22
20023;BME280;10172;42.054;24.546;2023-08-01T10:03:41;97499.09;;;33.99;41.96
20023;BME280;10172;42.054;24.546;2023-08-01T10:06:11;97492.94;;;33.77;41.48
20023;BME280;10172;42.054;24.546;2023-08-01T10:08:39;97490.91;;;34.30;41.39
20023;BME280;10172;42.054;24.546;2023-08-01T10:11:05;97481.69;;;33.94;40.93
20023;BME280;10172;42.054;24.546;2023-08-01T10:13:31;97480.53;;;33.80;42.51
20023;BME280;10172;42.054;24.546;2023-08-01T10:15:57;97475.91;;;33.90;43.02
20023;BME280;10172;42.054;24.546;2023-08-01T10:18:23;97477.53;;;33.91;41.95
20023;BME280;10172;42.054;24.546;2023-08-01T10:20:50;97478.06;;;33.83;41.94
20023;BME280;10172;42.054;24.546;2023-08-01T10:23:15;97463.28;;;34.30;41.28
20023;BME280;10172;42.054;24.546;2023-08-01T10:25:43;97457.78;;;34.50;40.09
20023;BME280;10172;42.054;24.546;2023-08-01T10:28:08;97454.78;;;34.56;40.79
20023;BME280;10172;42.054;24.546;2023-08-01T10:30:34;97454.47;;;34.22;41.13
20023;BME280;10172;42.054;24.546;2023-08-01T10:33:00;97447.56;;;34.30;40.98
20023;BME280;10172;42.054;24.546;2023-08-01T10:35:35;97442.81;;;34.05;41.95
20023;BME280;10172;42.054;24.546;2023-08-01T10:38:05;97440.13;;;34.61;41.25
20023;BME280;10172;42.054;24.546;2023-08-01T10:43:00;97421.06;;;34.14;41.61
20023;BME280;10172;42.054;24.546;2023-08-01T10:45:26;97430.16;;;34.35;42.35
20023;BME280;10172;42.054;24.546;2023-08-01T10:47:53;97427.88;;;33.96;42.10
20023;BME280;10172;42.054;24.546;2023-08-01T10:50:19;97410.72;;;33.69;43.13
20023;BME280;10172;42.054;24.546;2023-08-01T10:52:45;97406.97;;;34.10;42.37
20023;BME280;10172;42.054;24.546;2023-08-01T10:55:11;97416.91;;;34.11;43.15
20023;BME280;10172;42.054;24.546;2023-08-01T10:57:48;97409.19;;;34.13;41.34
20023;BME280;10172;42.054;24.546;2023-08-01T11:00:16;97410.78;;;33.84;43.18
20023;BME280;10172;42.054;24.546;2023-08-01T11:02:49;97396.03;;;33.53;43.66
20023;BME280;10172;42.054;24.546;2023-08-01T11:05:15;97393.69;;;33.92;43.88
20023;BME280;10172;42.054;24.546;2023-08-01T11:07:40;97394.25;;;33.94;43.38
20023;BME280;10172;42.054;24.546;2023-08-01T11:10:11;97397.84;;;34.00;43.58
20023;BME280;10172;42.054;24.546;2023-08-01T11:12:42;97389.84;;;34.03;43.15
20023;BME280;10172;42.054;24.546;2023-08-01T11:15:10;97373.59;;;34.22;43.43
20023;BME280;10172;42.054;24.546;2023-08-01T11:17:37;97376.34;;;34.17;43.07
20023;BME280;10172;42.054;24.546;2023-08-01T11:20:05;97368.63;;;34.59;41.99
20023;BME280;10172;42.054;24.546;2023-08-01T11:22:31;97374.38;;;34.02;43.70
20023;BME280;10172;42.054;24.546;2023-08-01T11:24:57;97364.44;;;34.01;43.47
20023;BME280;10172;42.054;24.546;2023-08-01T11:27:24;97370.09;;;33.39;45.43
20023;BME280;10172;42.054;24.546;2023-08-01T11:29:49;97362.56;;;33.15;46.93
20023;BME280;10172;42.054;24.546;2023-08-01T11:32:15;97356.59;;;33.38;47.44
20023;BME280;10172;42.054;24.546;2023-08-01T11:34:41;97360.69;;;33.30;47.53
20023;BME280;10172;42.054;24.546;2023-08-01T11:37:12;97355.88;;;33.78;nan
20023;BME280;10172;42.054;24.546;2023-08-01T11:39:38;97363.59;;;33.65;47.48
20023;BME280;10172;42.054;24.546;2023-08-01T11:42:04;97349.00;;;33.95;46.66
20023;BME280;10172;42.054;24.546;2023-08-01T11:44:30;97340.19;;;34.23;46.14
20023;BME280;10172;42.054;24.546;2023-08-01T11:46:56;97337.97;;;34.20;45.00
20023;BME280;10172;42.054;24.546;2023-08-01T11:49:22;97341.84;;;34.30;44.97
20023;BME280;10172;42.054;24.546;2023-08-01T11:51:48;97336.59;;;34.38;45.07
20023;BME280;10172;42.054;24.546;2023-08-01T11:54:14;97332.97;;;34.68;44.61
20023;BME280;10172;42.054;24.546;2023-08-01T11:56:41;97326.91;;;34.51;44.48
20023;BME280;10172;42.054;24.546;2023-08-01T11:59:09;97314.63;;;34.97;43.75
20023;BME280;10172;42.054;24.546;2023-08-01T12:01:46;97332.34;;;34.91;44.22
20023;BME280;10172;42.054;24.546;2023-08-01T12:04:12;97321.97;;;34.28;45.28
20023;BME280;10172;42.054;24.546;2023-08-01T12:06:48;97322.00;;;34.22;45.46
20023;BME280;10172;42.054;24.546;2023-08-01T12:09:14;97331.31;;;33.96;46.74
20023;BME280;10172;42.054;24.546;2023-08-01T12:11:40;97315.59;;;34.02;46.08
20023;BME280;10172;42.054;24.546;2023-08-01T12:14:13;97313.69;;;34.17;46.01
20023;BME280;10172;42.054;24.546;2023-08-01T12:16:43;97312.00;;;34.57;44.86
20023;BME280;10172;42.054;24.546;2023-08-01T12:19:19;97321.34;;;34.81;44.74
20023;BME280;10172;42.054;24.546;2023-08-01T12:21:46;97310.19;;;35.01;43.81
20023;BME280;10172;42.054;24.546;2023-08-01T12:24:11;97308.97;;;34.58;44.79
20023;BME280;10172;42.054;24.546;2023-08-01T12:26:37;97315.84;;;34.71;44.52
20023;BME280;10172;42.054;24.546;2023-08-01T12:29:03;97302.56;;;34.73;44.06
20023;BME280;10172;42.054;24.546;2023-08-01T12:31:28;97297.97;;;35.17;43.04
20023;BME280;10172;42.054;24.546;2023-08-01T12:33:54;97305.84;;;34.90;43.31
20023;BME280;10172;42.054;24.546;2023-08-01T12:36:20;97297.53;;;34.85;43.34
20023;BME280;10172;42.054;24.546;2023-08-01T12:38:45;97298.94;;;34.88;43.19
20023;BME280;10172;42.054;24.546;2023-08-01T12:41:11;97301.47;;;34.79;43.79
20023;BME280;10172;42.054;24.546;2023-08-01T12:43:37;97294.13;;;35.18;43.41
20023;BME280;10172;42.054;24.546;2023-08-01T12:46:02;97288.66;;;35.57;42.29